sensor_id;sensor_type;location;lat;lon;timestamp;P1;durP1;ratioP1;P2;durP2;ratioP2
2544;SDS011;36212;48.838;9.142;2023-03-08T00:00:53;6.53;;;5.68;;
2544;SDS011;36212;48.838;9.142;2023-03-08T00:03:25;8.65;;;6.38;;
2544;SDS011;36212;48.838;9.142;2023-03-08T00:05:57;7.03;;;5.82;;
2544;SDS011;36212;48.838;9.142;2023-03-08T00:08:33;6.40;;;5.80;;
2544;SDS011;36212;48.838;9.142;2023-03-08T00:11:09;6.55;;;5.65;;
2544;SDS011;36212;48.838;9.142;2023-03-08T00:13:43;7.05;;;5.55;;
2544;SDS011;36212;48.838;9.142;2023-03-08T00:16:15;8.55;;;6.38;;
2544;SDS011;36212;48.838;9.142;2023-03-08T00:18:48;7.50;;;5.15;;
2544;SDS011;36212;48.838;9.142;2023-03-08T00:21:21;5.97;;;5.40;;
2544;SDS011;36212;48.838;9.142;2023-03-08T00:23:53;7.88;;;6.70;;
2544;SDS011;36212;48.838;9.142;2023-03-08T00:26:25;7.13;;;5.80;;
2544;SDS011;36212;48.838;9.142;2023-03-08T00:28:57;8.60;;;6.45;;
2544;SDS011;36212;48.838;9.142;2023-03-08T00:31:29;6.78;;;6.07;;
2544;SDS011;36212;48.838;9.142;2023-03-08T00:34:02;7.20;;;6.10;;
2544;SDS011;36212;48.838;9.142;2023-03-08T00:36:34;7.68;;;6.57;;
2544;SDS011;36212;48.838;9.142;2023-03-08T00:39:06;7.82;;;6.90;;
2544;SDS011;36212;48.838;9.142;2023-03-08T00:41:40;10.52;;;6.93;;
2544;SDS011;36212;48.838;9.142;2023-03-08T00:44:12;7.65;;;6.85;;
2544;SDS011;36212;48.838;9.142;2023-03-08T00:46:45;7.82;;;6.70;;
2544;SDS011;36212;48.838;9.142;2023-03-08T00:49:17;8.88;;;6.32;;
2544;SDS011;36212;48.838;9.142;2023-03-08T00:51:49;8.05;;;7.03;;
2544;SDS011;36212;48.838;9.142;2023-03-08T00:54:21;9.60;;;7.80;;
2544;SDS011;36212;48.838;9.142;2023-03-08T00:56:53;7.80;;;7.07;;
2544;SDS011;36212;48.838;9.142;2023-03-08T00:59:25;9.70;;;7.45;;
2544;SDS011;36212;48.838;9.142;2023-03-08T01:01:57;7.70;;;6.78;;
2544;SDS011;36212;48.838;9.142;2023-03-08T01:04:31;9.30;;;6.97;;
2544;SDS011;36212;48.838;9.142;2023-03-08T01:07:04;9.73;;;7.43;;
2544;SDS011;36212;48.838;9.142;2023-03-08T01:09:36;8.55;;;7.68;;
2544;SDS011;36212;48.838;9.142;2023-03-08T01:12:08;10.25;;;7.95;;
2544;SDS011;36212;48.838;9.142;2023-03-08T01:14:40;9.70;;;8.35;;
2544;SDS011;36212;48.838;9.142;2023-03-08T01:17:12;10.77;;;8.77;;
2544;SDS011;36212;48.838;9.142;2023-03-08T01:19:44;9.30;;;8.13;;
2544;SDS011;36212;48.838;9.142;2023-03-08T01:22:16;9.55;;;7.22;;
2544;SDS011;36212;48.838;9.142;2023-03-08T01:24:48;9.70;;;8.45;;
2544;SDS011;36212;48.838;9.142;2023-03-08T01:27:21;10.95;;;8.48;;
2544;SDS011;36212;48.838;9.142;2023-03-08T01:29:53;10.85;;;8.13;;
2544;SDS011;36212;48.838;9.142;2023-03-08T01:32:25;9.38;;;7.70;;
2544;SDS011;36212;48.838;9.142;2023-03-08T01:34:58;9.43;;;8.52;;
2544;SDS011;36212;48.838;9.142;2023-03-08T01:37:35;12.73;;;8.75;;
2544;SDS011;36212;48.838;9.142;2023-03-08T01:40:07;10.15;;;8.35;;
2544;SDS011;36212;48.838;9.142;2023-03-08T01:42:44;10.77;;;8.60;;
2544;SDS011;36212;48.838;9.142;2023-03-08T01:57:23;11.63;;;9.35;;
2544;SDS011;36212;48.838;9.142;2023-03-08T02:00:12;12.38;;;9.18;;
2544;SDS011;36212;48.838;9.142;2023-03-08T02:03:00;10.50;;;8.70;;
2544;SDS011;36212;48.838;9.142;2023-03-08T02:05:37;11.68;;;9.23;;
2544;SDS011;36212;48.838;9.142;2023-03-08T02:08:13;13.77;;;9.70;;
2544;SDS011;36212;48.838;9.142;2023-03-08T02:10:45;14.13;;;9.55;;
2544;SDS011;36212;48.838;9.142;2023-03-08T02:13:18;14.13;;;10.10;;
2544;SDS011;36212;48.838;9.142;2023-03-08T02:15:52;9.70;;;8.70;;
2544;SDS011;36212;48.838;9.142;2023-03-08T02:18:27;15.20;;;9.35;;
2544;SDS011;36212;48.838;9.142;2023-03-08T02:20:59;10.27;;;8.23;;
2544;SDS011;36212;48.838;9.142;2023-03-08T02:23:32;13.68;;;8.90;;
2544;SDS011;36212;48.838;9.142;2023-03-08T02:26:04;9.90;;;8.90;;
2544;SDS011;36212;48.838;9.142;2023-03-08T02:28:36;11.70;;;8.88;;
2544;SDS011;36212;48.838;9.142;2023-03-08T02:31:10;12.13;;;8.63;;
2544;SDS011;36212;48.838;9.142;2023-03-08T02:33:44;10.80;;;8.80;;
2544;SDS011;36212;48.838;9.142;2023-03-08T02:36:16;13.38;;;9.90;;
2544;SDS011;36212;48.838;9.142;2023-03-08T02:38:48;16.08;;;9.85;;
2544;SDS011;36212;48.838;9.142;2023-03-08T02:41:20;9.43;;;8.45;;
2544;SDS011;36212;48.838;9.142;2023-03-08T02:43:52;10.65;;;9.30;;
2544;SDS011;36212;48.838;9.142;2023-03-08T02:46:24;10.23;;;9.10;;
2544;SDS011;36212;48.838;9.142;2023-03-08T02:48:56;12.77;;;9.15;;
2544;SDS011;36212;48.838;9.142;2023-03-08T02:51:28;12.90;;;8.30;;
2544;SDS011;36212;48.838;9.142;2023-03-08T02:54:00;10.68;;;8.65;;
2544;SDS011;36212;48.838;9.142;2023-03-08T02:56:33;11.98;;;8.85;;
2544;SDS011;36212;48.838;9.142;2023-03-08T02:59:07;11.75;;;8.55;;
2544;SDS011;36212;48.838;9.142;2023-03-08T03:01:40;11.23;;;8.27;;
2544;SDS011;36212;48.838;9.142;2023-03-08T03:04:12;12.32;;;9.00;;
2544;SDS011;36212;48.838;9.142;2023-03-08T03:06:44;11.88;;;8.82;;
2544;SDS011;36212;48.838;9.142;2023-03-08T03:09:16;13.05;;;8.75;;
2544;SDS011;36212;48.838;9.142;2023-03-08T03:11:48;11.93;;;8.77;;
2544;SDS011;36212;48.838;9.142;2023-03-08T03:14:20;11.30;;;8.40;;
2544;SDS011;36212;48.838;9.142;2023-03-08T03:16:52;12.38;;;9.38;;
2544;SDS011;36212;48.838;9.142;2023-03-08T03:19:24;9.52;;;8.10;;
2544;SDS011;36212;48.838;9.142;2023-03-08T03:21:56;8.73;;;7.82;;
2544;SDS011;36212;48.838;9.142;2023-03-08T03:24:29;11.77;;;8.32;;
2544;SDS011;36212;48.838;9.142;2023-03-08T03:27:01;13.57;;;8.60;;
2544;SDS011;36212;48.838;9.142;2023-03-08T03:29:33;13.73;;;9.98;;
2544;SDS011;36212;48.838;9.142;2023-03-08T03:32:07;11.85;;;8.93;;
2544;SDS011;36212;48.838;9.142;2023-03-08T03:34:39;7.97;;;6.88;;
2544;SDS011;36212;48.838;9.142;2023-03-08T03:37:12;13.45;;;7.40;;
2544;SDS011;36212;48.838;9.142;2023-03-08T03:39:44;8.15;;;7.30;;
2544;SDS011;36212;48.838;9.142;2023-03-08T03:42:16;9.85;;;8.27;;
2544;SDS011;36212;48.838;9.142;2023-03-08T03:44:48;8.40;;;7.38;;
2544;SDS011;36212;48.838;9.142;2023-03-08T03:47:20;10.10;;;7.90;;
2544;SDS011;36212;48.838;9.142;2023-03-08T03:49:52;7.90;;;6.80;;
2544;SDS011;36212;48.838;9.142;2023-03-08T03:52:25;8.63;;;7.82;;
2544;SDS011;36212;48.838;9.142;2023-03-08T03:54:57;9.73;;;7.45;;
2544;SDS011;36212;48.838;9.142;2023-03-08T03:57:29;9.80;;;7.47;;
2544;SDS011;36212;48.838;9.142;2023-03-08T04:00:01;9.60;;;7.60;;
2544;SDS011;36212;48.838;9.142;2023-03-08T04:02:35;10.93;;;7.25;;
2544;SDS011;36212;48.838;9.142;2023-03-08T04:05:07;10.50;;;7.32;;
2544;SDS011;36212;48.838;9.142;2023-03-08T04:07:39;11.13;;;8.07;;
2544;SDS011;36212;48.838;9.142;2023-03-08T04:10:11;12.55;;;8.40;;
2544;SDS011;36212;48.838;9.142;2023-03-08T04:12:46;11.27;;;7.20;;
2544;SDS011;36212;48.838;9.142;2023-03-08T04:15:20;13.77;;;8.50;;
2544;SDS011;36212;48.838;9.142;2023-03-08T04:21:23;9.35;;;7.88;;
2544;SDS011;36212;48.838;9.142;2023-03-08T04:23:56;10.07;;;7.93;;
2544;SDS011;36212;48.838;9.142;2023-03-08T04:26:31;13.95;;;7.80;;
2544;SDS011;36212;48.838;9.142;2023-03-08T04:29:04;11.63;;;7.68;;
2544;SDS011;36212;48.838;9.142;2023-03-08T04:31:36;9.13;;;8.00;;
2544;SDS011;36212;48.838;9.142;2023-03-08T04:34:09;11.25;;;7.65;;
2544;SDS011;36212;48.838;9.142;2023-03-08T04:36:41;12.45;;;8.77;;
2544;SDS011;36212;48.838;9.142;2023-03-08T04:39:13;8.52;;;7.70;;
2544;SDS011;36212;48.838;9.142;2023-03-08T04:41:45;10.85;;;8.70;;
2544;SDS011;36212;48.838;9.142;2023-03-08T04:44:17;9.00;;;6.70;;
2544;SDS011;36212;48.838;9.142;2023-03-08T04:46:49;8.02;;;7.18;;
2544;SDS011;36212;48.838;9.142;2023-03-08T04:49:22;9.07;;;7.60;;
2544;SDS011;36212;48.838;9.142;2023-03-08T04:51:55;9.32;;;8.00;;
2544;SDS011;36212;48.838;9.142;2023-03-08T04:54:27;10.15;;;7.75;;
2544;SDS011;36212;48.838;9.142;2023-03-08T04:56:59;8.98;;;8.07;;
2544;SDS011;36212;48.838;9.142;2023-03-08T04:59:31;13.50;;;9.00;;
2544;SDS011;36212;48.838;9.142;2023-03-08T05:02:03;9.73;;;8.35;;
2544;SDS011;36212;48.838;9.142;2023-03-08T05:04:35;12.45;;;8.27;;
2544;SDS011;36212;48.838;9.142;2023-03-08T05:07:07;9.27;;;8.13;;
2544;SDS011;36212;48.838;9.142;2023-03-08T05:09:39;11.95;;;8.10;;
2544;SDS011;36212;48.838;9.142;2023-03-08T05:12:13;9.02;;;7.85;;
2544;SDS011;36212;48.838;9.142;2023-03-08T05:14:45;9.05;;;8.07;;
2544;SDS011;36212;48.838;9.142;2023-03-08T05:17:17;9.65;;;8.10;;
2544;SDS011;36212;48.838;9.142;2023-03-08T05:19:50;8.35;;;7.55;;
2544;SDS011;36212;48.838;9.142;2023-03-08T05:22:22;9.35;;;7.85;;
2544;SDS011;36212;48.838;9.142;2023-03-08T05:24:54;10.20;;;8.10;;
2544;SDS011;36212;48.838;9.142;2023-03-08T05:27:30;11.13;;;8.55;;
2544;SDS011;36212;48.838;9.142;2023-03-08T05:30:04;9.73;;;8.43;;
2544;SDS011;36212;48.838;9.142;2023-03-08T05:32:37;10.15;;;8.38;;
2544;SDS011;36212;48.838;9.142;2023-03-08T05:35:09;8.98;;;7.45;;
2544;SDS011;36212;48.838;9.142;2023-03-08T05:37:41;12.52;;;9.35;;
2544;SDS011;36212;48.838;9.142;2023-03-08T05:40:13;13.48;;;9.00;;
2544;SDS011;36212;48.838;9.142;2023-03-08T05:42:45;9.35;;;8.35;;
2544;SDS011;36212;48.838;9.142;2023-03-08T05:45:17;16.13;;;8.98;;
2544;SDS011;36212;48.838;9.142;2023-03-08T05:47:49;10.52;;;7.90;;
2544;SDS011;36212;48.838;9.142;2023-03-08T05:50:21;10.75;;;9.30;;
2544;SDS011;36212;48.838;9.142;2023-03-08T05:52:53;11.88;;;8.77;;
2544;SDS011;36212;48.838;9.142;2023-03-08T05:55:25;9.65;;;8.50;;
2544;SDS011;36212;48.838;9.142;2023-03-08T05:57:57;9.52;;;8.43;;
2544;SDS011;36212;48.838;9.142;2023-03-08T06:00:29;11.20;;;8.32;;
2544;SDS011;36212;48.838;9.142;2023-03-08T06:03:01;10.10;;;9.05;;
2544;SDS011;36212;48.838;9.142;2023-03-08T06:05:36;11.60;;;8.45;;
2544;SDS011;36212;48.838;9.142;2023-03-08T06:08:09;13.18;;;8.73;;
2544;SDS011;36212;48.838;9.142;2023-03-08T06:10:41;10.68;;;9.00;;
2544;SDS011;36212;48.838;9.142;2023-03-08T06:13:13;8.20;;;7.40;;
2544;SDS011;36212;48.838;9.142;2023-03-08T06:18:37;10.45;;;8.07;;
2544;SDS011;36212;48.838;9.142;2023-03-08T06:21:12;10.48;;;8.60;;
2544;SDS011;36212;48.838;9.142;2023-03-08T06:23:48;12.00;;;9.57;;
2544;SDS011;36212;48.838;9.142;2023-03-08T06:26:21;10.23;;;8.93;;
2544;SDS011;36212;48.838;9.142;2023-03-08T06:28:53;11.65;;;9.05;;
2544;SDS011;36212;48.838;9.142;2023-03-08T06:31:25;11.48;;;9.10;;
2544;SDS011;36212;48.838;9.142;2023-03-08T06:33:57;11.02;;;9.10;;
2544;SDS011;36212;48.838;9.142;2023-03-08T06:36:29;12.63;;;9.60;;
2544;SDS011;36212;48.838;9.142;2023-03-08T06:39:01;12.50;;;10.27;;
2544;SDS011;36212;48.838;9.142;2023-03-08T06:41:34;10.75;;;9.18;;
2544;SDS011;36212;48.838;9.142;2023-03-08T06:44:06;12.68;;;10.48;;
2544;SDS011;36212;48.838;9.142;2023-03-08T06:46:38;11.27;;;9.65;;
2544;SDS011;36212;48.838;9.142;2023-03-08T06:49:10;11.85;;;9.32;;
2544;SDS011;36212;48.838;9.142;2023-03-08T06:51:43;15.35;;;10.80;;
2544;SDS011;36212;48.838;9.142;2023-03-08T06:54:15;11.93;;;9.73;;
2544;SDS011;36212;48.838;9.142;2023-03-08T06:56:48;11.77;;;10.25;;
2544;SDS011;36212;48.838;9.142;2023-03-08T06:59:20;12.40;;;10.63;;
2544;SDS011;36212;48.838;9.142;2023-03-08T07:01:52;14.77;;;10.55;;
2544;SDS011;36212;48.838;9.142;2023-03-08T07:04:24;12.80;;;10.07;;
2544;SDS011;36212;48.838;9.142;2023-03-08T07:06:56;12.80;;;10.00;;
2544;SDS011;36212;48.838;9.142;2023-03-08T07:09:29;13.68;;;10.35;;
2544;SDS011;36212;48.838;9.142;2023-03-08T07:12:01;13.80;;;9.70;;
2544;SDS011;36212;48.838;9.142;2023-03-08T07:14:34;14.65;;;11.23;;
2544;SDS011;36212;48.838;9.142;2023-03-08T07:17:06;13.82;;;10.10;;
2544;SDS011;36212;48.838;9.142;2023-03-08T07:19:38;13.52;;;10.27;;
2544;SDS011;36212;48.838;9.142;2023-03-08T07:22:10;15.73;;;10.30;;
2544;SDS011;36212;48.838;9.142;2023-03-08T07:24:45;12.38;;;10.38;;
2544;SDS011;36212;48.838;9.142;2023-03-08T07:27:20;11.80;;;10.05;;
2544;SDS011;36212;48.838;9.142;2023-03-08T07:29:52;15.90;;;11.23;;
2544;SDS011;36212;48.838;9.142;2023-03-08T07:32:26;13.32;;;10.00;;
2544;SDS011;36212;48.838;9.142;2023-03-08T07:34:59;12.70;;;9.88;;
2544;SDS011;36212;48.838;9.142;2023-03-08T07:37:32;13.43;;;11.20;;
2544;SDS011;36212;48.838;9.142;2023-03-08T07:40:05;13.73;;;11.10;;
2544;SDS011;36212;48.838;9.142;2023-03-08T07:42:42;15.35;;;11.57;;
2544;SDS011;36212;48.838;9.142;2023-03-08T07:45:15;14.40;;;10.20;;
2544;SDS011;36212;48.838;9.142;2023-03-08T07:47:51;17.63;;;13.57;;
2544;SDS011;36212;48.838;9.142;2023-03-08T07:50:24;17.48;;;11.82;;
2544;SDS011;36212;48.838;9.142;2023-03-08T07:52:57;12.55;;;11.10;;
2544;SDS011;36212;48.838;9.142;2023-03-08T07:55:30;13.25;;;9.13;;
2544;SDS011;36212;48.838;9.142;2023-03-08T07:58:03;12.00;;;9.70;;
2544;SDS011;36212;48.838;9.142;2023-03-08T08:00:35;12.85;;;10.20;;
2544;SDS011;36212;48.838;9.142;2023-03-08T08:03:07;15.60;;;10.43;;
2544;SDS011;36212;48.838;9.142;2023-03-08T08:05:40;13.35;;;10.75;;
2544;SDS011;36212;48.838;9.142;2023-03-08T08:08:13;13.10;;;10.02;;
2544;SDS011;36212;48.838;9.142;2023-03-08T08:10:46;13.50;;;10.50;;
2544;SDS011;36212;48.838;9.142;2023-03-08T08:13:18;10.63;;;9.50;;
2544;SDS011;36212;48.838;9.142;2023-03-08T08:16:00;15.77;;;11.02;;
2544;SDS011;36212;48.838;9.142;2023-03-08T08:18:34;14.90;;;10.85;;
2544;SDS011;36212;48.838;9.142;2023-03-08T08:21:10;13.57;;;10.90;;
2544;SDS011;36212;48.838;9.142;2023-03-08T08:23:45;12.88;;;11.30;;
2544;SDS011;36212;48.838;9.142;2023-03-08T08:26:19;15.77;;;11.80;;
2544;SDS011;36212;48.838;9.142;2023-03-08T08:28:52;13.52;;;11.00;;
2544;SDS011;36212;48.838;9.142;2023-03-08T08:31:26;14.20;;;11.48;;
2544;SDS011;36212;48.838;9.142;2023-03-08T08:34:02;10.15;;;8.82;;
2544;SDS011;36212;48.838;9.142;2023-03-08T08:36:34;9.80;;;8.48;;
2544;SDS011;36212;48.838;9.142;2023-03-08T08:39:06;12.95;;;10.10;;
2544;SDS011;36212;48.838;9.142;2023-03-08T08:41:39;11.20;;;9.50;;
2544;SDS011;36212;48.838;9.142;2023-03-08T08:44:12;12.20;;;9.98;;
2544;SDS011;36212;48.838;9.142;2023-03-08T08:46:44;11.38;;;10.05;;
2544;SDS011;36212;48.838;9.142;2023-03-08T08:49:17;11.55;;;9.63;;
2544;SDS011;36212;48.838;9.142;2023-03-08T08:51:49;12.80;;;9.85;;
2544;SDS011;36212;48.838;9.142;2023-03-08T08:54:23;12.65;;;9.60;;
2544;SDS011;36212;48.838;9.142;2023-03-08T08:56:55;11.10;;;9.05;;
2544;SDS011;36212;48.838;9.142;2023-03-08T08:59:27;12.07;;;9.50;;
2544;SDS011;36212;48.838;9.142;2023-03-08T09:02:00;13.30;;;10.60;;
2544;SDS011;36212;48.838;9.142;2023-03-08T09:04:33;14.27;;;10.20;;
2544;SDS011;36212;48.838;9.142;2023-03-08T09:07:06;17.42;;;10.73;;
2544;SDS011;36212;48.838;9.142;2023-03-08T09:09:38;13.13;;;9.90;;
2544;SDS011;36212;48.838;9.142;2023-03-08T09:12:10;11.13;;;9.27;;
2544;SDS011;36212;48.838;9.142;2023-03-08T09:14:42;14.52;;;11.15;;
2544;SDS011;36212;48.838;9.142;2023-03-08T09:17:14;11.57;;;9.52;;
2544;SDS011;36212;48.838;9.142;2023-03-08T09:19:46;12.75;;;10.35;;
2544;SDS011;36212;48.838;9.142;2023-03-08T09:22:19;19.85;;;12.45;;
2544;SDS011;36212;48.838;9.142;2023-03-08T09:24:51;14.23;;;11.80;;
2544;SDS011;36212;48.838;9.142;2023-03-08T09:27:24;14.35;;;11.57;;
2544;SDS011;36212;48.838;9.142;2023-03-08T09:29:56;14.27;;;11.15;;
2544;SDS011;36212;48.838;9.142;2023-03-08T09:32:31;13.05;;;10.77;;
2544;SDS011;36212;48.838;9.142;2023-03-08T09:35:05;14.60;;;10.95;;
2544;SDS011;36212;48.838;9.142;2023-03-08T09:37:38;17.75;;;11.38;;
2544;SDS011;36212;48.838;9.142;2023-03-08T09:40:16;16.27;;;11.10;;
2544;SDS011;36212;48.838;9.142;2023-03-08T09:42:58;15.77;;;11.68;;
2544;SDS011;36212;48.838;9.142;2023-03-08T09:45:40;15.43;;;12.25;;
2544;SDS011;36212;48.838;9.142;2023-03-08T09:48:21;17.27;;;13.02;;
2544;SDS011;36212;48.838;9.142;2023-03-08T09:51:01;18.48;;;13.88;;
2544;SDS011;36212;48.838;9.142;2023-03-08T09:53:40;25.95;;;16.27;;
2544;SDS011;36212;48.838;9.142;2023-03-08T09:56:41;22.95;;;16.60;;
2544;SDS011;36212;48.838;9.142;2023-03-08T09:59:24;16.70;;;13.35;;
2544;SDS011;36212;48.838;9.142;2023-03-08T10:09:31;18.73;;;12.95;;
2544;SDS011;36212;48.838;9.142;2023-03-08T10:15:42;18.58;;;13.98;;
2544;SDS011;36212;48.838;9.142;2023-03-08T10:21:10;11.38;;;10.07;;
2544;SDS011;36212;48.838;9.142;2023-03-08T10:23:57;14.73;;;11.25;;
2544;SDS011;36212;48.838;9.142;2023-03-08T10:29:55;6.88;;;6.15;;
2544;SDS011;36212;48.838;9.142;2023-03-08T10:32:31;6.55;;;5.38;;
2544;SDS011;36212;48.838;9.142;2023-03-08T10:35:15;8.65;;;5.90;;
2544;SDS011;36212;48.838;9.142;2023-03-08T10:38:00;7.22;;;6.40;;
2544;SDS011;36212;48.838;9.142;2023-03-08T10:40:34;6.40;;;5.50;;
2544;SDS011;36212;48.838;9.142;2023-03-08T10:43:07;5.13;;;4.68;;
2544;SDS011;36212;48.838;9.142;2023-03-08T10:46:12;6.35;;;5.75;;
2544;SDS011;36212;48.838;9.142;2023-03-08T10:48:52;6.20;;;5.60;;
2544;SDS011;36212;48.838;9.142;2023-03-08T10:51:38;5.10;;;4.70;;
2544;SDS011;36212;48.838;9.142;2023-03-08T10:54:26;12.98;;;11.55;;
2544;SDS011;36212;48.838;9.142;2023-03-08T10:57:00;6.05;;;5.40;;
2544;SDS011;36212;48.838;9.142;2023-03-08T10:59:33;5.85;;;5.20;;
2544;SDS011;36212;48.838;9.142;2023-03-08T11:04:52;8.45;;;7.70;;
2544;SDS011;36212;48.838;9.142;2023-03-08T11:07:30;4.63;;;4.22;;
2544;SDS011;36212;48.838;9.142;2023-03-08T11:10:16;6.32;;;5.75;;
2544;SDS011;36212;48.838;9.142;2023-03-08T11:12:59;3.25;;;3.05;;
2544;SDS011;36212;48.838;9.142;2023-03-08T11:16:05;18.70;;;15.18;;
2544;SDS011;36212;48.838;9.142;2023-03-08T11:26:14;13.63;;;6.80;;
2544;SDS011;36212;48.838;9.142;2023-03-08T11:32:06;3.22;;;2.40;;
2544;SDS011;36212;48.838;9.142;2023-03-08T11:35:36;1.67;;;1.58;;
2544;SDS011;36212;48.838;9.142;2023-03-08T11:38:54;2.55;;;2.30;;
2544;SDS011;36212;48.838;9.142;2023-03-08T11:42:00;2.40;;;2.25;;
2544;SDS011;36212;48.838;9.142;2023-03-08T11:57:47;7.93;;;5.30;;
2544;SDS011;36212;48.838;9.142;2023-03-08T12:04:31;3.28;;;2.70;;
2544;SDS011;36212;48.838;9.142;2023-03-08T12:07:21;20.30;;;12.90;;
2544;SDS011;36212;48.838;9.142;2023-03-08T12:13:29;32.83;;;18.73;;
2544;SDS011;36212;48.838;9.142;2023-03-08T12:22:27;12.90;;;8.40;;
2544;SDS011;36212;48.838;9.142;2023-03-08T12:28:31;1.88;;;1.77;;
2544;SDS011;36212;48.838;9.142;2023-03-08T12:31:16;19.77;;;10.82;;
2544;SDS011;36212;48.838;9.142;2023-03-08T12:34:10;20.17;;;12.00;;
2544;SDS011;36212;48.838;9.142;2023-03-08T12:37:28;8.07;;;5.78;;
2544;SDS011;36212;48.838;9.142;2023-03-08T12:40:05;3.70;;;3.40;;
2544;SDS011;36212;48.838;9.142;2023-03-08T12:43:27;3.75;;;3.40;;
2544;SDS011;36212;48.838;9.142;2023-03-08T12:46:07;2.65;;;2.45;;
2544;SDS011;36212;48.838;9.142;2023-03-08T12:48:50;2.30;;;2.20;;
2544;SDS011;36212;48.838;9.142;2023-03-08T12:51:29;1.90;;;1.80;;
2544;SDS011;36212;48.838;9.142;2023-03-08T12:54:04;2.10;;;2.00;;
2544;SDS011;36212;48.838;9.142;2023-03-08T12:56:52;3.38;;;2.50;;
2544;SDS011;36212;48.838;9.142;2023-03-08T12:59:35;3.78;;;1.67;;
2544;SDS011;36212;48.838;9.142;2023-03-08T13:05:15;29.13;;;20.45;;
2544;SDS011;36212;48.838;9.142;2023-03-08T13:16:34;7.45;;;4.90;;
2544;SDS011;36212;48.838;9.142;2023-03-08T13:22:11;1.83;;;1.73;;
2544;SDS011;36212;48.838;9.142;2023-03-08T13:25:11;1.60;;;1.50;;
2544;SDS011;36212;48.838;9.142;2023-03-08T13:28:15;1.80;;;1.60;;
2544;SDS011;36212;48.838;9.142;2023-03-08T13:31:14;2.85;;;1.40;;
2544;SDS011;36212;48.838;9.142;2023-03-08T13:33:57;5.47;;;1.45;;
2544;SDS011;36212;48.838;9.142;2023-03-08T13:36:31;1.58;;;1.42;;
2544;SDS011;36212;48.838;9.142;2023-03-08T13:39:18;1.50;;;1.40;;
2544;SDS011;36212;48.838;9.142;2023-03-08T13:42:09;1.65;;;1.55;;
2544;SDS011;36212;48.838;9.142;2023-03-08T13:44:42;1.48;;;1.38;;
2544;SDS011;36212;48.838;9.142;2023-03-08T13:47:20;2.20;;;1.90;;
2544;SDS011;36212;48.838;9.142;2023-03-08T13:50:02;6.97;;;3.70;;
2544;SDS011;36212;48.838;9.142;2023-03-08T13:52:43;1.75;;;1.50;;
2544;SDS011;36212;48.838;9.142;2023-03-08T13:55:18;1.42;;;1.33;;
2544;SDS011;36212;48.838;9.142;2023-03-08T13:57:58;2.03;;;1.80;;
2544;SDS011;36212;48.838;9.142;2023-03-08T14:00:34;1.60;;;1.50;;
2544;SDS011;36212;48.838;9.142;2023-03-08T14:03:17;1.63;;;1.52;;
2544;SDS011;36212;48.838;9.142;2023-03-08T14:05:51;7.53;;;1.50;;
2544;SDS011;36212;48.838;9.142;2023-03-08T14:08:25;55.42;;;19.02;;
2544;SDS011;36212;48.838;9.142;2023-03-08T14:10:59;22.08;;;7.03;;
2544;SDS011;36212;48.838;9.142;2023-03-08T14:13:45;53.92;;;30.63;;
2544;SDS011;36212;48.838;9.142;2023-03-08T14:16:29;12.88;;;8.90;;
2544;SDS011;36212;48.838;9.142;2023-03-08T14:21:57;19.45;;;17.38;;
2544;SDS011;36212;48.838;9.142;2023-03-08T14:24:47;5.47;;;5.00;;
2544;SDS011;36212;48.838;9.142;2023-03-08T14:30:15;5.78;;;2.80;;
2544;SDS011;36212;48.838;9.142;2023-03-08T14:33:00;6.95;;;5.65;;
2544;SDS011;36212;48.838;9.142;2023-03-08T14:35:52;16.15;;;10.43;;
2544;SDS011;36212;48.838;9.142;2023-03-08T14:38:30;13.77;;;8.88;;
2544;SDS011;36212;48.838;9.142;2023-03-08T14:41:04;19.17;;;14.20;;
2544;SDS011;36212;48.838;9.142;2023-03-08T14:43:39;4.97;;;3.97;;
2544;SDS011;36212;48.838;9.142;2023-03-08T14:46:18;3.50;;;3.22;;
2544;SDS011;36212;48.838;9.142;2023-03-08T14:49:00;1.90;;;1.80;;
2544;SDS011;36212;48.838;9.142;2023-03-08T14:51:37;1.92;;;1.83;;
2544;SDS011;36212;48.838;9.142;2023-03-08T14:54:23;3.70;;;3.50;;
2544;SDS011;36212;48.838;9.142;2023-03-08T14:57:17;2.10;;;2.00;;
2544;SDS011;36212;48.838;9.142;2023-03-08T15:00:00;1.40;;;1.30;;
2544;SDS011;36212;48.838;9.142;2023-03-08T15:02:44;1.65;;;1.55;;
2544;SDS011;36212;48.838;9.142;2023-03-08T15:05:18;1.33;;;1.23;;
2544;SDS011;36212;48.838;9.142;2023-03-08T15:08:00;1.73;;;1.63;;
2544;SDS011;36212;48.838;9.142;2023-03-08T15:10:34;1.90;;;1.80;;
2544;SDS011;36212;48.838;9.142;2023-03-08T15:13:14;1.30;;;1.20;;
2544;SDS011;36212;48.838;9.142;2023-03-08T15:15:57;2.13;;;1.27;;
2544;SDS011;36212;48.838;9.142;2023-03-08T15:18:29;1.50;;;1.40;;
2544;SDS011;36212;48.838;9.142;2023-03-08T15:21:02;8.75;;;8.00;;
2544;SDS011;36212;48.838;9.142;2023-03-08T15:23:36;4.90;;;3.97;;
2544;SDS011;36212;48.838;9.142;2023-03-08T15:26:12;4.85;;;3.15;;
2544;SDS011;36212;48.838;9.142;2023-03-08T15:28:55;3.17;;;2.85;;
2544;SDS011;36212;48.838;9.142;2023-03-08T15:31:29;4.40;;;4.00;;
2544;SDS011;36212;48.838;9.142;2023-03-08T15:34:02;2.17;;;1.63;;
2544;SDS011;36212;48.838;9.142;2023-03-08T15:36:35;3.50;;;2.92;;
2544;SDS011;36212;48.838;9.142;2023-03-08T15:39:10;1.60;;;1.50;;
2544;SDS011;36212;48.838;9.142;2023-03-08T15:41:44;1.30;;;1.20;;
2544;SDS011;36212;48.838;9.142;2023-03-08T15:44:17;1.85;;;1.40;;
2544;SDS011;36212;48.838;9.142;2023-03-08T15:46:50;2.00;;;1.90;;
2544;SDS011;36212;48.838;9.142;2023-03-08T15:49:23;2.03;;;1.50;;
2544;SDS011;36212;48.838;9.142;2023-03-08T15:51:56;3.50;;;3.30;;
2544;SDS011;36212;48.838;9.142;2023-03-08T15:54:31;2.13;;;2.03;;
2544;SDS011;36212;48.838;9.142;2023-03-08T15:57:04;1.70;;;1.60;;
2544;SDS011;36212;48.838;9.142;2023-03-08T15:59:37;1.38;;;1.27;;
2544;SDS011;36212;48.838;9.142;2023-03-08T16:02:12;3.15;;;1.20;;
2544;SDS011;36212;48.838;9.142;2023-03-08T16:04:48;1.30;;;1.20;;
2544;SDS011;36212;48.838;9.142;2023-03-08T16:07:27;1.40;;;1.30;;
2544;SDS011;36212;48.838;9.142;2023-03-08T16:10:00;1.48;;;1.38;;
2544;SDS011;36212;48.838;9.142;2023-03-08T16:12:36;1.35;;;1.25;;
2544;SDS011;36212;48.838;9.142;2023-03-08T16:15:09;1.45;;;1.35;;
2544;SDS011;36212;48.838;9.142;2023-03-08T16:17:42;1.58;;;1.48;;
2544;SDS011;36212;48.838;9.142;2023-03-08T16:20:15;1.30;;;1.20;;
2544;SDS011;36212;48.838;9.142;2023-03-08T16:22:50;1.50;;;1.40;;
2544;SDS011;36212;48.838;9.142;2023-03-08T16:25:25;2.35;;;1.30;;
2544;SDS011;36212;48.838;9.142;2023-03-08T16:27:58;1.45;;;1.35;;
2544;SDS011;36212;48.838;9.142;2023-03-08T16:30:30;1.33;;;1.23;;
2544;SDS011;36212;48.838;9.142;2023-03-08T16:33:04;2.17;;;1.30;;
2544;SDS011;36212;48.838;9.142;2023-03-08T16:35:37;2.25;;;1.20;;
2544;SDS011;36212;48.838;9.142;2023-03-08T16:38:18;1.48;;;1.30;;
2544;SDS011;36212;48.838;9.142;2023-03-08T16:40:52;1.70;;;1.55;;
2544;SDS011;36212;48.838;9.142;2023-03-08T16:43:43;1.60;;;1.50;;
2544;SDS011;36212;48.838;9.142;2023-03-08T16:46:20;2.00;;;1.42;;
2544;SDS011;36212;48.838;9.142;2023-03-08T16:48:54;1.90;;;1.80;;
2544;SDS011;36212;48.838;9.142;2023-03-08T16:51:29;1.83;;;1.73;;
2544;SDS011;36212;48.838;9.142;2023-03-08T16:54:02;2.03;;;1.70;;
2544;SDS011;36212;48.838;9.142;2023-03-08T16:56:35;1.70;;;1.60;;
2544;SDS011;36212;48.838;9.142;2023-03-08T16:59:12;2.03;;;1.77;;
2544;SDS011;36212;48.838;9.142;2023-03-08T17:01:48;1.83;;;1.73;;
2544;SDS011;36212;48.838;9.142;2023-03-08T17:04:21;1.55;;;1.45;;
2544;SDS011;36212;48.838;9.142;2023-03-08T17:06:54;2.10;;;2.00;;
2544;SDS011;36212;48.838;9.142;2023-03-08T17:09:28;2.00;;;1.80;;
2544;SDS011;36212;48.838;9.142;2023-03-08T17:12:01;2.65;;;1.83;;
2544;SDS011;36212;48.838;9.142;2023-03-08T17:14:36;2.60;;;2.40;;
2544;SDS011;36212;48.838;9.142;2023-03-08T17:19:54;2.13;;;1.98;;
2544;SDS011;36212;48.838;9.142;2023-03-08T17:22:27;9.93;;;4.30;;
2544;SDS011;36212;48.838;9.142;2023-03-08T17:25:04;2.20;;;1.98;;
2544;SDS011;36212;48.838;9.142;2023-03-08T17:27:37;2.63;;;2.20;;